Time;durP1;ratioP1;P1;durP2;ratioP2;P2;SDS_P1;SDS_P2;PMS_P1;PMS_P2;Temp;Humidity;BMP_temperature;BMP_pressure;BME280_temperature;BME280_humidity;BME280_pressure;Samples;Min_cycle;Max_cycle;Signal;HPM_P1;HPM_P2
2022/10/06 00:01:33;;;;;;;;;;;;;;;14.95;70.08;101808.41;5017562;28;19917;-77
2022/10/06 00:03:58;;;;;;;;;;;;;;;14.87;69.72;101812.94;5007390;28;19925;-77
2022/10/06 00:06:23;;;;;;;;;;;;;;;14.95;70.10;101813.63;5009585;28;19960;-76
2022/10/06 00:08:48;;;;;;;;;;;;;;;14.96;69.73;101822.34;5014628;28;20376;-77
2022/10/06 00:11:14;;;;;;;;;;;;;;;14.93;70.30;101848.56;5012631;28;19922;-77
2022/10/06 00:13:40;;;;;;;;;;;;;;;14.54;75.09;101885.09;5024349;28;20350;-77
2022/10/06 00:16:13;;;;;;;;;;;;;;;14.10;77.24;101887.69;5013946;28;20382;-74
2022/10/06 00:18:39;;;;;;;;;;;;;;;13.99;76.76;101879.16;5014709;28;19925;-74
2022/10/06 00:21:04;;;;;;;;;;;;;;;14.19;76.68;101880.53;5021642;28;19921;-74
2022/10/06 00:23:30;;;;;;;;;;;;;;;14.23;77.53;101884.81;5014244;28;20410;-73
2022/10/06 00:25:57;;;;;;;;;;;;;;;14.07;75.41;101878.16;5010370;28;19922;-74
2022/10/06 00:28:22;;;;;;;;;;;;;;;14.21;74.68;101889.19;5016808;28;19935;-74
2022/10/06 00:30:49;;;;;;;;;;;;;;;14.19;74.17;101883.16;5015372;28;20007;-73
2022/10/06 00:33:16;;;;;;;;;;;;;;;14.24;74.98;101888.28;5012085;28;19921;-74
2022/10/06 00:35:45;;;;;;;;;;;;;;;14.21;74.83;101888.34;5017786;28;19924;-73
2022/10/06 00:38:12;;;;;;;;;;;;;;;14.22;72.93;101890.06;5013419;28;19944;-74
2022/10/06 00:40:43;;;;;;;;;;;;;;;14.22;73.54;101883.09;5012778;28;19962;-73
2022/10/06 00:43:34;;;;;;;;;;;;;;;14.20;75.16;101886.63;5016516;28;19917;-74
2022/10/06 00:46:00;;;;;;;;;;;;;;;14.23;75.07;101892.63;4988461;28;19971;-73
2022/10/06 00:48:26;;;;;;;;;;;;;;;14.17;74.58;101895.41;5010428;28;19929;-73
2022/10/06 00:50:53;;;;;;;;;;;;;;;14.26;74.26;101891.75;5015543;28;20386;-74
2022/10/06 00:53:18;;;;;;;;;;;;;;;14.29;74.21;101899.53;5012695;28;19963;-73
2022/10/06 00:55:44;;;;;;;;;;;;;;;14.25;74.41;101901.34;5013458;28;20016;-73
2022/10/06 00:58:09;;;;;;;;;;;;;;;14.35;73.34;101904.66;5019448;28;19988;-73
2022/10/06 01:00:35;;;;;;;;;;;;;;;14.33;73.42;101907.28;5012534;28;19928;-73
2022/10/06 01:03:04;;;;;;;;;;;;;;;14.31;73.28;101909.06;5009046;28;19918;-73
2022/10/06 01:05:31;;;;;;;;;;;;;;;14.39;72.83;101913.28;5011998;28;19929;-74
2022/10/06 01:07:57;;;;;;;;;;;;;;;14.26;74.38;101915.28;5011660;28;20012;-73
2022/10/06 01:10:22;;;;;;;;;;;;;;;14.39;71.98;101908.91;5020693;28;20019;-74
2022/10/06 01:12:48;;;;;;;;;;;;;;;14.40;72.19;101918.50;5014060;28;19921;-73
2022/10/06 01:15:14;;;;;;;;;;;;;;;14.42;72.69;101926.28;5014228;28;19929;-73
2022/10/06 01:17:51;;;;;;;;;;;;;;;14.42;71.81;101927.16;5010981;28;19918;-73
2022/10/06 01:20:17;;;;;;;;;;;;;;;14.47;72.23;101929.69;5016071;28;19928;-73
2022/10/06 01:22:43;;;;;;;;;;;;;;;14.41;72.02;101942.88;5011577;28;19932;-73
2022/10/06 01:25:10;;;;;;;;;;;;;;;14.48;72.86;101944.47;5008527;28;20474;-74
2022/10/06 01:27:37;;;;;;;;;;;;;;;14.52;72.69;101946.16;5010678;28;19922;-73
2022/10/06 01:30:04;;;;;;;;;;;;;;;14.49;71.12;101947.09;5008532;28;19931;-73
2022/10/06 01:32:34;;;;;;;;;;;;;;;14.46;72.10;101956.72;5008802;28;20333;-73
2022/10/06 01:34:59;;;;;;;;;;;;;;;14.48;72.04;101950.56;5015713;28;19925;-73
2022/10/06 01:37:24;;;;;;;;;;;;;;;14.42;72.95;101958.53;5010710;28;19922;-73
2022/10/06 01:39:49;;;;;;;;;;;;;;;14.42;71.95;101961.13;5009851;28;20020;-73
2022/10/06 01:42:15;;;;;;;;;;;;;;;14.45;71.96;101955.84;5010138;28;20004;-73
2022/10/06 01:44:40;;;;;;;;;;;;;;;14.38;71.84;101967.34;5010742;28;19962;-73
2022/10/06 01:47:05;;;;;;;;;;;;;;;14.36;71.79;101971.72;4993323;28;19925;-73
2022/10/06 01:49:31;;;;;;;;;;;;;;;14.32;71.36;101972.66;5009164;28;20009;-74
2022/10/06 01:51:56;;;;;;;;;;;;;;;14.36;71.63;101969.09;5020952;28;19933;-73
2022/10/06 01:54:21;;;;;;;;;;;;;;;14.39;71.83;101976.88;5009780;28;20442;-76
2022/10/06 01:56:47;;;;;;;;;;;;;;;14.34;71.02;101981.34;5015499;28;20110;-77
2022/10/06 01:59:12;;;;;;;;;;;;;;;14.30;71.47;101995.34;5010333;28;19968;-77
2022/10/06 02:01:37;;;;;;;;;;;;;;;14.33;70.01;101979.59;5008766;28;19922;-77
2022/10/06 02:04:02;;;;;;;;;;;;;;;14.28;70.92;101990.16;5008871;28;19997;-77
2022/10/06 02:06:28;;;;;;;;;;;;;;;14.22;71.17;101989.38;5009244;28;19917;-76
2022/10/06 02:08:54;;;;;;;;;;;;;;;14.27;70.63;101991.03;5015324;28;19924;-77
2022/10/06 02:11:19;;;;;;;;;;;;;;;14.26;70.39;101998.91;5011243;28;19928;-77
2022/10/06 02:13:44;;;;;;;;;;;;;;;14.26;69.83;101996.28;5011264;28;19962;-77
2022/10/06 02:16:12;;;;;;;;;;;;;;;14.25;69.91;101992.81;5009869;28;20410;-77
2022/10/06 02:18:37;;;;;;;;;;;;;;;14.21;69.00;101998.97;5014744;28;19922;-77
2022/10/06 02:21:03;;;;;;;;;;;;;;;14.25;68.98;101999.78;5013088;28;19924;-76
2022/10/06 02:23:28;;;;;;;;;;;;;;;14.17;68.59;102014.75;5012240;28;20063;-77
2022/10/06 02:26:01;;;;;;;;;;;;;;;14.14;69.21;102018.28;5006641;28;20436;-76
2022/10/06 02:28:26;;;;;;;;;;;;;;;14.16;69.02;102024.31;5008503;28;19925;-77
2022/10/06 02:30:52;;;;;;;;;;;;;;;14.16;68.71;102020.84;5011466;28;19932;-77
2022/10/06 02:33:17;;;;;;;;;;;;;;;14.19;68.00;102023.41;5015070;28;20019;-76
2022/10/06 02:35:43;;;;;;;;;;;;;;;14.17;68.10;102027.81;4995502;28;19929;-77
2022/10/06 02:38:08;;;;;;;;;;;;;;;14.17;68.19;102031.28;5000957;28;20051;-76
2022/10/06 02:40:34;;;;;;;;;;;;;;;14.17;67.63;102048.72;5015514;28;19948;-77
2022/10/06 02:42:59;;;;;;;;;;;;;;;14.16;67.87;102041.75;5017458;28;19925;-77
2022/10/06 02:45:24;;;;;;;;;;;;;;;14.09;68.12;102046.19;5013974;28;19926;-77
2022/10/06 02:47:50;;;;;;;;;;;;;;;14.08;68.33;102048.84;5011422;28;19918;-76
2022/10/06 02:50:15;;;;;;;;;;;;;;;14.07;68.03;102044.50;5016976;28;19921;-77
2022/10/06 02:52:41;;;;;;;;;;;;;;;14.06;68.21;102042.75;5013061;28;19921;-76
2022/10/06 02:55:07;;;;;;;;;;;;;;;14.03;67.77;102048.91;5011197;28;19921;-77
2022/10/06 02:57:33;;;;;;;;;;;;;;;14.00;67.60;102053.31;5017697;28;19987;-77
2022/10/06 02:59:59;;;;;;;;;;;;;;;14.00;67.81;102063.75;4995425;28;20253;-76
2022/10/06 03:02:24;;;;;;;;;;;;;;;13.99;67.89;102072.50;5013016;28;19968;-77
2022/10/06 03:04:49;;;;;;;;;;;;;;;14.02;67.25;102059.41;5015907;28;20445;-77
2022/10/06 03:07:15;;;;;;;;;;;;;;;13.95;67.11;102060.34;5016901;28;19992;-77
2022/10/06 03:09:40;;;;;;;;;;;;;;;14.00;67.13;102066.38;5020420;28;19925;-77
2022/10/06 03:12:06;;;;;;;;;;;;;;;13.93;67.49;102077.81;5013001;28;20020;-76
2022/10/06 03:14:32;;;;;;;;;;;;;;;13.88;67.83;102075.25;5015290;28;19917;-76
2022/10/06 03:16:57;;;;;;;;;;;;;;;13.91;67.52;102083.03;5016116;28;19924;-76
2022/10/06 03:19:23;;;;;;;;;;;;;;;13.86;67.66;102094.44;5018205;28;20361;-77
2022/10/06 03:21:48;;;;;;;;;;;;;;;13.88;67.93;102088.31;5016413;28;19921;-77
2022/10/06 03:24:14;;;;;;;;;;;;;;;13.88;67.09;102097.91;5012754;28;19980;-76
2022/10/06 03:26:43;;;;;;;;;;;;;;;13.85;67.87;102103.19;5012272;28;19925;-77
2022/10/06 03:29:09;;;;;;;;;;;;;;;13.79;68.02;102106.72;5018334;28;20477;-76
2022/10/06 03:31:34;;;;;;;;;;;;;;;13.71;67.04;102113.78;5012161;28;19925;-77
2022/10/06 03:34:00;;;;;;;;;;;;;;;13.73;67.13;102114.63;5009750;28;20353;-77
2022/10/06 03:36:26;;;;;;;;;;;;;;;13.68;67.38;102113.81;5016487;28;19921;-77
2022/10/06 03:38:52;;;;;;;;;;;;;;;13.74;67.30;102124.19;5000415;28;19917;-76
2022/10/06 03:41:18;;;;;;;;;;;;;;;13.68;67.31;102127.75;5012371;28;19917;-77
2022/10/06 03:43:45;;;;;;;;;;;;;;;13.69;66.87;102134.72;5012609;28;20028;-77
2022/10/06 03:46:12;;;;;;;;;;;;;;;13.69;66.52;102136.44;5014869;28;19921;-77
2022/10/06 03:48:37;;;;;;;;;;;;;;;13.62;66.91;102146.06;5017052;28;20016;-77
2022/10/06 03:51:03;;;;;;;;;;;;;;;13.66;67.13;102146.91;5009447;28;20343;-76
2022/10/06 03:53:29;;;;;;;;;;;;;;;13.63;66.79;102145.19;5016532;28;20531;-76
2022/10/06 03:56:14;;;;;;;;;;;;;;;13.60;67.20;102142.63;5013892;28;19961;-77
2022/10/06 03:58:42;;;;;;;;;;;;;;;13.57;67.55;102140.03;5013969;28;19928;-77
2022/10/06 04:01:09;;;;;;;;;;;;;;;13.56;67.40;102155.72;5011738;28;20330;-77
2022/10/06 04:03:34;;;;;;;;;;;;;;;13.55;67.14;102164.44;5011611;28;19929;-76
2022/10/06 04:06:03;;;;;;;;;;;;;;;13.56;66.79;102161.81;5011441;28;19932;-76
2022/10/06 04:08:28;;;;;;;;;;;;;;;13.56;66.82;102173.97;5014638;28;19944;-77
2022/10/06 04:10:54;;;;;;;;;;;;;;;13.53;66.53;102172.28;5017952;28;19917;-77
2022/10/06 04:13:20;;;;;;;;;;;;;;;13.49;67.29;102183.63;5009848;28;19929;-76
2022/10/06 04:15:46;;;;;;;;;;;;;;;13.50;66.62;102193.19;5003083;28;20011;-77
2022/10/06 04:18:12;;;;;;;;;;;;;;;13.43;66.97;102198.50;5014558;28;19929;-76
2022/10/06 04:20:37;;;;;;;;;;;;;;;13.48;66.29;102204.53;5015170;28;19910;-77
2022/10/06 04:23:03;;;;;;;;;;;;;;;13.47;65.80;102210.63;5015119;28;20329;-77
2022/10/06 04:25:28;;;;;;;;;;;;;;;13.46;66.63;102217.59;5012235;28;20298;-76
2022/10/06 04:27:53;;;;;;;;;;;;;;;13.40;66.40;102220.28;5010067;28;19921;-77
2022/10/06 04:30:19;;;;;;;;;;;;;;;13.42;66.36;102226.34;5010126;28;19921;-76
2022/10/06 04:32:44;;;;;;;;;;;;;;;13.35;67.65;102226.41;5009489;28;20019;-77
2022/10/06 04:35:10;;;;;;;;;;;;;;;13.26;67.60;102242.16;5014013;28;20415;-77
2022/10/06 04:37:35;;;;;;;;;;;;;;;13.30;66.24;102239.50;5011357;28;19926;-77
2022/10/06 04:40:01;;;;;;;;;;;;;;;13.18;67.24;102248.31;5012325;28;19921;-77
2022/10/06 04:42:28;;;;;;;;;;;;;;;13.19;67.25;102250.03;5008320;28;20446;-77
2022/10/06 04:44:53;;;;;;;;;;;;;;;13.16;67.20;102254.44;5015608;28;19928;-76
2022/10/06 04:47:19;;;;;;;;;;;;;;;13.15;67.37;102265.72;5013297;28;19921;-76
2022/10/06 04:49:44;;;;;;;;;;;;;;;13.18;66.71;102268.31;5019220;28;19920;-77
2022/10/06 04:52:09;;;;;;;;;;;;;;;13.21;66.01;102268.28;5008752;28;19926;-77
2022/10/06 04:54:34;;;;;;;;;;;;;;;13.16;65.64;102265.72;5011049;28;20397;-76
2022/10/06 04:57:00;;;;;;;;;;;;;;;13.28;65.50;102269.13;5009134;28;19929;-76
2022/10/06 05:00:21;;;;;;;;;;;;;;;13.26;65.60;102274.34;5006303;28;19913;-77
2022/10/06 05:02:10;;;;;;;;;;;;;;;13.19;65.90;102270.91;5011892;28;19922;-77
2022/10/06 05:04:36;;;;;;;;;;;;;;;13.06;66.21;102277.09;5014182;28;20315;-77
2022/10/06 05:07:01;;;;;;;;;;;;;;;13.07;66.02;102281.47;5010009;28;19972;-77
2022/10/06 05:09:26;;;;;;;;;;;;;;;12.99;66.44;102279.75;5014501;28;19972;-77
2022/10/06 05:11:51;;;;;;;;;;;;;;;12.98;65.34;102278.91;5004932;28;20029;-76
2022/10/06 05:14:17;;;;;;;;;;;;;;;12.97;65.76;102289.34;5008452;28;20398;-77
2022/10/06 05:16:42;;;;;;;;;;;;;;;12.92;65.75;102298.94;5010566;28;19976;-77
2022/10/06 05:19:07;;;;;;;;;;;;;;;12.94;65.72;102297.19;5010228;28;19917;-76
2022/10/06 05:21:33;;;;;;;;;;;;;;;12.97;65.19;102300.66;5009969;28;19921;-76
2022/10/06 05:23:58;;;;;;;;;;;;;;;12.99;65.08;102304.09;5006248;28;20024;-76
2022/10/06 05:26:25;;;;;;;;;;;;;;;12.96;65.68;102298.03;5008322;28;20024;-77
2022/10/06 05:28:51;;;;;;;;;;;;;;;12.98;64.40;102301.53;5008337;28;19921;-77
2022/10/06 05:31:16;;;;;;;;;;;;;;;12.93;65.05;102313.69;5003927;28;20469;-77
2022/10/06 05:33:41;;;;;;;;;;;;;;;12.99;64.83;102318.88;5009788;28;19925;-77
2022/10/06 05:36:09;;;;;;;;;;;;;;;12.95;64.75;102314.56;5010538;28;19923;-77
2022/10/06 05:38:35;;;;;;;;;;;;;;;12.90;65.35;102326.78;5012690;28;19924;-77
2022/10/06 05:41:04;;;;;;;;;;;;;;;12.92;65.09;102330.25;5010500;28;19917;-77
2022/10/06 05:43:30;;;;;;;;;;;;;;;12.96;64.74;102327.59;5010980;28;19921;-77
2022/10/06 05:45:56;;;;;;;;;;;;;;;12.98;64.90;102331.09;5011271;28;19972;-78
2022/10/06 05:48:22;;;;;;;;;;;;;;;13.02;65.04;102337.13;5015335;28;19929;-77
2022/10/06 05:50:48;;;;;;;;;;;;;;;12.94;64.81;102344.13;4999267;28;19962;-76
2022/10/06 05:53:13;;;;;;;;;;;;;;;12.96;64.72;102358.03;5010748;28;19925;-77
2022/10/06 05:55:38;;;;;;;;;;;;;;;12.89;65.01;102352.00;5008029;28;19921;-78
2022/10/06 05:58:04;;;;;;;;;;;;;;;12.80;64.81;102351.19;5006753;28;19967;-78
2022/10/06 06:00:29;;;;;;;;;;;;;;;12.94;65.18;102362.41;5004900;28;19928;-78
2022/10/06 06:02:54;;;;;;;;;;;;;;;12.92;65.32;102367.63;5012630;28;20298;-77
2022/10/06 06:05:20;;;;;;;;;;;;;;;13.04;64.57;102366.69;5010923;28;19941;-77
2022/10/06 06:07:45;;;;;;;;;;;;;;;12.86;65.03;102374.63;5013561;28;19921;-78
2022/10/06 06:10:10;;;;;;;;;;;;;;;12.86;65.42;102378.09;5011420;28;19922;-78
2022/10/06 06:12:35;;;;;;;;;;;;;;;12.82;65.61;102378.97;5007716;28;19922;-77
2022/10/06 06:17:44;;;;;;;;;;;;;;;12.77;65.00;102385.09;5007272;28;19944;-78
2022/10/06 06:20:10;;;;;;;;;;;;;;;12.83;65.13;102380.72;5007191;28;19930;-78
2022/10/06 06:22:35;;;;;;;;;;;;;;;12.85;64.85;102393.72;5009404;28;19971;-77
2022/10/06 06:25:00;;;;;;;;;;;;;;;12.87;65.03;102392.84;5007414;28;19952;-78
2022/10/06 06:27:26;;;;;;;;;;;;;;;12.87;64.79;102398.06;5012588;28;20011;-78
2022/10/06 06:29:51;;;;;;;;;;;;;;;12.90;64.64;102397.22;5012625;28;19918;-76
2022/10/06 06:32:16;;;;;;;;;;;;;;;12.88;64.64;102407.63;5017031;28;20370;-78
2022/10/06 06:34:41;;;;;;;;;;;;;;;12.84;64.97;102412.88;5011499;28;19926;-77
2022/10/06 06:37:08;;;;;;;;;;;;;;;12.87;64.80;102408.50;5009279;28;19917;-78
2022/10/06 06:39:33;;;;;;;;;;;;;;;12.82;65.89;102414.59;5008311;28;20413;-77
2022/10/06 06:42:00;;;;;;;;;;;;;;;12.85;65.40;102415.47;5014381;28;19921;-77
2022/10/06 06:44:26;;;;;;;;;;;;;;;12.96;64.73;102425.84;5012570;28;20458;-77
2022/10/06 06:46:51;;;;;;;;;;;;;;;12.85;65.91;102430.25;5010362;28;20020;-78
2022/10/06 06:49:17;;;;;;;;;;;;;;;12.93;65.30;102433.69;5012910;28;20044;-77
2022/10/06 06:51:43;;;;;;;;;;;;;;;12.98;64.84;102434.56;5011013;28;20012;-78
2022/10/06 06:54:09;;;;;;;;;;;;;;;12.92;65.15;102439.78;5013062;28;20000;-78
2022/10/06 06:56:35;;;;;;;;;;;;;;;12.94;65.19;102443.25;5009578;28;19922;-77
2022/10/06 06:59:07;;;;;;;;;;;;;;;12.92;65.35;102445.88;5005730;28;19928;-77
2022/10/06 07:01:33;;;;;;;;;;;;;;;12.89;64.99;102450.25;5005988;28;19925;-77
2022/10/06 07:03:58;;;;;;;;;;;;;;;12.87;65.18;102450.22;5009110;28;19932;-77
2022/10/06 07:06:26;;;;;;;;;;;;;;;12.89;65.59;102455.47;5008429;28;19922;-78
2022/10/06 07:08:52;;;;;;;;;;;;;;;12.80;65.27;102455.47;5012460;28;19917;-77
2022/10/06 07:11:22;;;;;;;;;;;;;;;12.75;66.32;102465.06;5003951;28;20326;-77
2022/10/06 07:13:52;;;;;;;;;;;;;;;12.83;65.40;102464.16;5013245;28;19936;-78
2022/10/06 07:27:21;;;;;;;;;;;;;;;12.97;64.49;102477.16;5009486;28;19987;-78
2022/10/06 07:29:49;;;;;;;;;;;;;;;13.04;64.80;102487.56;5016701;28;19957;-78
2022/10/06 07:32:14;;;;;;;;;;;;;;;13.01;65.34;102491.94;5012584;28;19989;-77
2022/10/06 07:34:40;;;;;;;;;;;;;;;13.02;65.17;102488.44;5000847;28;19921;-78
2022/10/06 07:37:05;;;;;;;;;;;;;;;12.95;65.74;102500.66;4992040;28;19921;-78
2022/10/06 07:39:31;;;;;;;;;;;;;;;12.97;64.70;102491.06;4991319;28;19976;-78
2022/10/06 07:41:56;;;;;;;;;;;;;;;13.02;64.15;102498.88;5013453;28;20332;-77
2022/10/06 07:44:22;;;;;;;;;;;;;;;13.03;64.31;102500.59;5017602;28;19937;-77
2022/10/06 07:46:47;;;;;;;;;;;;;;;13.10;65.63;102511.03;5012131;28;19953;-77
2022/10/06 07:49:13;;;;;;;;;;;;;;;13.08;64.35;102509.28;5013049;28;20457;-77
2022/10/06 07:51:38;;;;;;;;;;;;;;;13.04;64.49;102520.63;5014852;28;19975;-78
2022/10/06 07:54:04;;;;;;;;;;;;;;;13.15;62.30;102519.69;5008905;28;19929;-77
2022/10/06 07:56:30;;;;;;;;;;;;;;;13.16;63.61;102521.44;5018469;28;20000;-78
2022/10/06 07:58:57;;;;;;;;;;;;;;;13.20;63.35;102520.53;5014847;28;20275;-77
2022/10/06 08:01:24;;;;;;;;;;;;;;;13.23;62.59;102530.97;5016685;28;20370;-78
2022/10/06 08:03:49;;;;;;;;;;;;;;;13.25;64.20;102530.97;5013216;28;19936;-78
2022/10/06 08:06:16;;;;;;;;;;;;;;;13.07;62.83;102539.75;5011407;28;19929;-78
2022/10/06 08:08:45;;;;;;;;;;;;;;;13.25;62.24;102544.03;5003263;28;20393;-78
2022/10/06 08:11:11;;;;;;;;;;;;;;;13.21;63.93;102545.78;5014182;28;19921;-77
2022/10/06 08:13:37;;;;;;;;;;;;;;;13.25;64.24;102545.75;5007969;28;19930;-78
2022/10/06 08:16:04;;;;;;;;;;;;;;;13.27;63.84;102538.78;5009018;28;20079;-77
2022/10/06 08:18:29;;;;;;;;;;;;;;;13.30;64.18;102541.38;5014285;28;19921;-78
2022/10/06 08:20:54;;;;;;;;;;;;;;;13.34;63.69;102535.28;5014496;28;19920;-77
2022/10/06 08:23:21;;;;;;;;;;;;;;;13.40;62.79;102537.88;5016692;28;19920;-78
2022/10/06 08:25:50;;;;;;;;;;;;;;;13.45;63.40;102541.31;5015822;28;19922;-78
2022/10/06 08:28:16;;;;;;;;;;;;;;;13.45;62.00;102543.94;5007846;28;20012;-78
2022/10/06 08:30:41;;;;;;;;;;;;;;;13.36;63.59;102550.06;5010400;28;20490;-78
2022/10/06 08:33:06;;;;;;;;;;;;;;;13.45;61.45;102552.63;5007189;28;20013;-77
2022/10/06 08:35:32;;;;;;;;;;;;;;;13.54;61.34;102562.16;5014005;28;19960;-77
2022/10/06 08:37:57;;;;;;;;;;;;;;;13.52;62.22;102558.72;5009075;28;19968;-78
2022/10/06 08:40:23;;;;;;;;;;;;;;;13.53;61.12;102557.81;5011898;28;20015;-77
2022/10/06 08:42:50;;;;;;;;;;;;;;;13.58;60.77;102562.13;5015456;28;19945;-78
2022/10/06 08:45:36;;;;;;;;;;;;;;;13.53;60.51;102569.13;5017071;28;20466;-78
2022/10/06 08:48:03;;;;;;;;;;;;;;;13.51;60.63;102563.06;5010927;28;19924;-78
2022/10/06 08:50:32;;;;;;;;;;;;;;;13.53;61.18;102565.66;5017951;28;20000;-78
2022/10/06 08:53:09;;;;;;;;;;;;;;;13.62;60.82;102561.25;5009579;28;20318;-78
2022/10/06 08:55:46;;;;;;;;;;;;;;;13.58;61.80;102576.97;5012272;28;19922;-77
2022/10/06 08:58:31;;;;;;;;;;;;;;;13.56;61.82;102574.34;5008036;28;19922;-78
2022/10/06 09:01:00;;;;;;;;;;;;;;;13.66;61.01;102583.00;5011431;28;19921;-77
2022/10/06 09:03:28;;;;;;;;;;;;;;;13.65;61.68;102583.88;4999468;28;20375;-78
2022/10/06 09:05:57;;;;;;;;;;;;;;;13.63;63.00;102594.34;5008035;28;20318;-77
2022/10/06 09:08:25;;;;;;;;;;;;;;;13.67;61.75;102587.41;5013247;28;19925;-78
2022/10/06 09:11:09;;;;;;;;;;;;;;;13.73;60.49;102595.16;5015205;28;19922;-78
2022/10/06 09:13:39;;;;;;;;;;;;;;;13.74;61.37;102605.63;5019701;28;20405;-78
2022/10/06 09:16:06;;;;;;;;;;;;;;;13.80;59.95;102596.88;5016022;28;19921;-77
2022/10/06 09:18:44;;;;;;;;;;;;;;;13.77;62.94;102605.59;5009555;28;19936;-77
2022/10/06 09:21:17;;;;;;;;;;;;;;;13.72;61.87;102599.56;5019331;28;19992;-77
2022/10/06 09:23:46;;;;;;;;;;;;;;;13.84;60.76;102603.84;4998252;28;19921;-78
2022/10/06 09:26:23;;;;;;;;;;;;;;;13.79;61.27;102605.59;5011255;28;19925;-78
2022/10/06 09:28:48;;;;;;;;;;;;;;;13.80;57.46;102603.84;5011920;28;19925;-77
2022/10/06 09:31:16;;;;;;;;;;;;;;;13.77;57.00;102600.38;5011863;28;19984;-78
2022/10/06 09:33:42;;;;;;;;;;;;;;;13.76;58.45;102606.47;5014411;28;19928;-77
2022/10/06 09:36:08;;;;;;;;;;;;;;;13.87;58.13;102614.28;5018971;28;20369;-77
2022/10/06 09:38:48;;;;;;;;;;;;;;;13.89;60.19;102622.97;5017899;28;19920;-77
2022/10/06 09:41:14;;;;;;;;;;;;;;;13.89;59.20;102619.47;5007953;28;19952;-77
2022/10/06 09:43:40;;;;;;;;;;;;;;;13.94;58.27;102626.41;5013442;28;19929;-77
2022/10/06 09:46:24;;;;;;;;;;;;;;;13.93;55.96;102609.00;5011045;28;19925;-77
2022/10/06 09:49:04;;;;;;;;;;;;;;;13.93;53.93;102611.63;5019106;28;19918;-78
2022/10/06 09:51:32;;;;;;;;;;;;;;;13.94;55.51;102608.13;4991008;28;20444;-77
2022/10/06 09:54:13;;;;;;;;;;;;;;;13.95;54.00;102611.59;5009763;28;19921;-77
2022/10/06 09:56:43;;;;;;;;;;;;;;;13.96;56.12;102613.34;5008403;28;19906;-77
2022/10/06 09:59:20;;;;;;;;;;;;;;;14.00;56.01;102622.88;4991605;28;20006;-77
2022/10/06 10:01:52;;;;;;;;;;;;;;;13.99;56.98;102621.19;5015725;28;19917;-77
2022/10/06 10:04:22;;;;;;;;;;;;;;;13.96;56.52;102613.34;5011534;28;19988;-77
2022/10/06 10:06:47;;;;;;;;;;;;;;;13.98;55.29;102624.66;5011908;28;19979;-78
2022/10/06 10:09:13;;;;;;;;;;;;;;;14.03;54.43;102612.41;5012035;28;20394;-77
2022/10/06 10:14:22;;;;;;;;;;;;;;;14.05;54.22;102618.53;5002782;28;20205;-77
2022/10/06 10:16:48;;;;;;;;;;;;;;;14.11;54.41;102614.13;5013019;28;20294;-78
2022/10/06 10:19:21;;;;;;;;;;;;;;;14.06;55.14;102618.50;5003059;28;19925;-78
2022/10/06 10:21:47;;;;;;;;;;;;;;;14.04;54.81;102615.03;5009158;28;19967;-78
2022/10/06 10:24:20;;;;;;;;;;;;;;;14.13;55.38;102620.22;5014127;28;19953;-77
2022/10/06 10:26:59;;;;;;;;;;;;;;;14.14;53.70;102616.72;5013776;28;19991;-77
2022/10/06 10:29:50;;;;;;;;;;;;;;;14.08;53.17;102611.53;5011495;28;19948;-78
2022/10/06 10:32:19;;;;;;;;;;;;;;;14.17;52.04;102611.47;5005259;28;19928;-77
2022/10/06 10:34:53;;;;;;;;;;;;;;;14.23;52.70;102611.41;5009309;28;19979;-78
2022/10/06 10:37:22;;;;;;;;;;;;;;;14.17;54.23;102608.00;5009860;28;20341;-77
2022/10/06 10:39:59;;;;;;;;;;;;;;;14.14;54.47;102613.25;5000278;28;20386;-77
2022/10/06 10:42:34;;;;;;;;;;;;;;;14.25;50.98;102607.06;5013618;28;19943;-77
2022/10/06 10:45:00;;;;;;;;;;;;;;;14.16;49.78;102608.88;5013629;28;19928;-77
2022/10/06 10:47:29;;;;;;;;;;;;;;;14.25;50.21;102612.28;5008207;28;19975;-78
2022/10/06 10:50:04;;;;;;;;;;;;;;;14.26;50.16;102619.22;5007932;28;19922;-78
2022/10/06 10:52:33;;;;;;;;;;;;;;;14.33;51.82;102612.22;5010357;28;20575;-77
2022/10/06 10:55:16;;;;;;;;;;;;;;;14.32;52.91;102611.34;5013941;28;20368;-77
2022/10/06 10:57:42;;;;;;;;;;;;;;;14.39;51.48;102601.72;5007799;28;20525;-77
2022/10/06 11:00:16;;;;;;;;;;;;;;;14.38;51.78;102614.81;5013141;28;19929;-77
2022/10/06 11:02:42;;;;;;;;;;;;;;;14.39;49.81;102609.56;5017115;28;20278;-78
2022/10/06 11:05:22;;;;;;;;;;;;;;;14.34;48.91;102611.34;4998795;28;19933;-77
2022/10/06 11:08:06;;;;;;;;;;;;;;;14.36;49.38;102612.19;5014107;28;19929;-78
2022/10/06 11:10:34;;;;;;;;;;;;;;;14.40;50.15;102613.06;5014324;28;19964;-77
2022/10/06 11:13:15;;;;;;;;;;;;;;;14.42;50.64;102619.13;5016626;28;19921;-77
2022/10/06 11:15:59;;;;;;;;;;;;;;;14.39;51.03;102613.91;5019321;28;19917;-78
2022/10/06 11:18:27;;;;;;;;;;;;;;;14.45;50.17;102616.50;5026267;28;19917;-78
2022/10/06 11:21:04;;;;;;;;;;;;;;;14.38;49.20;102615.69;5014719;28;19944;-78
2022/10/06 11:23:45;;;;;;;;;;;;;;;14.45;49.90;102617.38;4997157;28;19922;-78
2022/10/06 11:26:24;;;;;;;;;;;;;;;14.44;49.28;102606.94;5016592;28;20000;-78
2022/10/06 11:28:52;;;;;;;;;;;;;;;14.47;50.22;102618.25;5009924;28;19947;-78
2022/10/06 11:31:23;;;;;;;;;;;;;;;14.42;51.82;102617.38;5013276;28;19928;-77
2022/10/06 11:33:53;;;;;;;;;;;;;;;14.48;51.82;102614.72;5011181;28;20371;-77
2022/10/06 11:36:38;;;;;;;;;;;;;;;14.52;52.94;102607.72;5007693;28;20007;-77
2022/10/06 11:39:27;;;;;;;;;;;;;;;14.49;50.81;102606.00;4983867;28;19972;-77
2022/10/06 11:42:09;;;;;;;;;;;;;;;14.56;53.64;102604.22;5006109;28;20731;-77
2022/10/06 11:44:47;;;;;;;;;;;;;;;14.51;59.63;102612.09;5014853;28;20833;-78
2022/10/06 11:47:19;;;;;;;;;;;;;;;14.46;57.62;102610.38;5015009;28;19921;-78
2022/10/06 11:49:50;;;;;;;;;;;;;;;14.45;58.22;102612.13;5009549;28;20557;-78
2022/10/06 11:52:16;;;;;;;;;;;;;;;14.54;55.31;102600.72;5013244;28;20399;-78
2022/10/06 11:54:54;;;;;;;;;;;;;;;14.52;54.31;102608.59;5011441;28;20024;-77
2022/10/06 11:57:23;;;;;;;;;;;;;;;14.49;55.38;102605.13;5014587;28;19928;-78
2022/10/06 11:59:49;;;;;;;;;;;;;;;14.45;57.47;102603.41;5003592;28;19918;-78
2022/10/06 12:02:27;;;;;;;;;;;;;;;14.47;50.07;102593.84;5010891;28;19957;-78
2022/10/06 12:05:11;;;;;;;;;;;;;;;14.54;49.56;102595.50;5014571;28;19936;-78
2022/10/06 12:07:51;;;;;;;;;;;;;;;14.54;50.25;102592.88;5015316;28;20012;-78
2022/10/06 12:10:30;;;;;;;;;;;;;;;14.56;51.21;102597.22;5013303;28;19929;-78
2022/10/06 12:13:14;;;;;;;;;;;;;;;14.54;47.63;102583.28;5014148;28;20020;-78
2022/10/06 12:15:55;;;;;;;;;;;;;;;14.49;48.47;102586.84;5018813;28;19921;-78
2022/10/06 12:18:28;;;;;;;;;;;;;;;14.56;48.03;102585.91;5015876;28;20536;-78
2022/10/06 12:20:54;;;;;;;;;;;;;;;14.60;48.31;102590.22;5020372;28;19917;-79
2022/10/06 12:23:25;;;;;;;;;;;;;;;14.69;47.05;102584.91;5015106;28;19927;-78
2022/10/06 12:25:54;;;;;;;;;;;;;;;14.65;47.30;102581.44;5012875;28;20028;-78
2022/10/06 12:28:43;;;;;;;;;;;;;;;14.71;46.14;102577.94;5010041;28;19964;-78
2022/10/06 12:31:08;;;;;;;;;;;;;;;14.73;47.20;102581.38;5011060;28;19961;-78
2022/10/06 12:33:38;;;;;;;;;;;;;;;14.76;47.30;102570.94;5016600;28;19991;-78
2022/10/06 12:36:14;;;;;;;;;;;;;;;14.77;44.95;102570.91;5019487;28;19921;-78
2022/10/06 12:38:41;;;;;;;;;;;;;;;14.74;46.05;102577.91;5012664;28;19925;-78
2022/10/06 12:41:13;;;;;;;;;;;;;;;14.73;43.77;102568.31;5000431;28;20297;-78
2022/10/06 12:43:56;;;;;;;;;;;;;;;14.72;47.40;102563.94;4992585;28;19948;-78
2022/10/06 12:46:24;;;;;;;;;;;;;;;14.69;47.89;102569.22;5014804;28;20339;-78
2022/10/06 12:48:52;;;;;;;;;;;;;;;14.80;46.32;102557.78;5008596;28;20374;-78
2022/10/06 12:51:37;;;;;;;;;;;;;;;14.78;47.93;102563.94;5010839;28;19931;-78
2022/10/06 12:54:08;;;;;;;;;;;;;;;14.79;46.28;102555.19;5013864;28;20323;-78
2022/10/06 12:56:38;;;;;;;;;;;;;;;14.84;45.61;102556.88;5015992;28;19929;-78
2022/10/06 12:59:23;;;;;;;;;;;;;;;14.81;46.26;102551.69;5013048;28;19925;-78